»·PEaware :: MRR12 S86-4W0

MRR12 :: S86-4W0

FLIGHT INFORMATION

Flight Status: Arrived
Operator:
San Juan Airlines
More flights by this operator :: More flights under this callsign
Pilot: Alex L. (5269)
Aircraft: CESSNA 207 TURBO STATIONAIR
(C207)
More flights by this aircraft type
Origin: S86 Sky Harbor
United States
Destination: 4W0 Bandera State
United States
More flights between these airports :: More routes between these airports
Route: DCT
File this flight plan on PilotEdge
Remarks: FSEconomy and San Juan Virtual Airlines flight. Live streaming on www.twitch.tv / alexsflyingclub
Altitude:
(Current/Filed)
2,000ft
Speed:
(Current/Filed)
144kts
Departed: 12-Jan-17 06:10 PM
Arrived: 12-Jan-17 06:33 PM
Distance/Time
Traveled:
30nm/0:23
Distance/Time
To Go:
Arrived

Flight Plot

Page will automatically refresh every two minutes.


Map Options




Map Legend


Flown Route
Filed Route
Departure Airport
Arrival Airport
Navaid (VOR, NDB)
Fix

Horizontal Profiles

Position Reports

Time Latitude Longitude Heading Altitude Ground
Speed
12-Jan-17 17:48 47.870447 -121.792135 305 251ft 0kts
12-Jan-17 17:49 47.870444 -121.792135 305 251ft 0kts
12-Jan-17 17:50 47.870442 -121.792135 305 251ft 0kts
12-Jan-17 17:51 47.870439 -121.792135 305 251ft 0kts
12-Jan-17 17:52 47.870436 -121.792135 305 251ft 0kts
12-Jan-17 17:53 47.870436 -121.792135 305 251ft 0kts
12-Jan-17 17:54 47.870436 -121.792135 305 251ft 0kts
12-Jan-17 17:55 47.870436 -121.792136 305 251ft 0kts
12-Jan-17 17:56 47.870435 -121.792137 305 251ft 0kts
12-Jan-17 17:57 47.870435 -121.792139 305 251ft 0kts
12-Jan-17 17:58 47.870434 -121.792141 305 251ft 0kts
12-Jan-17 17:59 47.870434 -121.792142 305 251ft 0kts
12-Jan-17 18:00 47.870433 -121.792144 305 251ft 0kts
12-Jan-17 18:01 47.870432 -121.792145 305 251ft 0kts
12-Jan-17 18:02 47.870432 -121.792147 305 251ft 0kts
12-Jan-17 18:03 47.870431 -121.792148 305 251ft 0kts
12-Jan-17 18:04 47.870431 -121.792150 305 251ft 0kts
12-Jan-17 18:05 47.870430 -121.792151 305 251ft 0kts
12-Jan-17 18:06 47.870763 -121.792790 275 256ft 8kts
12-Jan-17 18:07 47.870797 -121.796316 125 276ft 4kts
12-Jan-17 18:08 47.870818 -121.796053 87 274ft 0kts
12-Jan-17 18:09 47.870818 -121.796049 87 274ft 0kts
12-Jan-17 18:10 47.870854 -121.794292 88 262ft 48kts
12-Jan-17 18:11 47.868858 -121.762392 123 785ft 89kts
12-Jan-17 18:12 47.850404 -121.776765 235 1426ft 91kts
12-Jan-17 18:13 47.835339 -121.808786 203 1938ft 102kts
12-Jan-17 18:14 47.806196 -121.815781 182 2437ft 107kts
12-Jan-17 18:15 47.774435 -121.818609 177 2835ft 116kts
12-Jan-17 18:16 47.740812 -121.819597 176 3008ft 129kts
12-Jan-17 18:17 47.703525 -121.821888 181 2917ft 131kts
12-Jan-17 18:18 47.668033 -121.816309 164 2996ft 130kts
12-Jan-17 18:19 47.632048 -121.805198 169 2955ft 130kts
12-Jan-17 18:20 47.596579 -121.793636 163 2976ft 131kts
12-Jan-17 18:21 47.561318 -121.776934 158 2866ft 133kts
12-Jan-17 18:22 47.525133 -121.779903 195 2811ft 135kts
12-Jan-17 18:23 47.489967 -121.780925 153 3061ft 117kts
12-Jan-17 18:24 47.469073 -121.741669 124 3167ft 128kts
12-Jan-17 18:25 47.452625 -121.694924 117 3162ft 131kts
12-Jan-17 18:26 47.433937 -121.647356 124 2957ft 136kts
12-Jan-17 18:27 47.419472 -121.598090 122 3023ft 129kts
12-Jan-17 18:28 47.395772 -121.557404 126 3054ft 135kts
12-Jan-17 18:29 47.389873 -121.508629 85 3253ft 136kts
12-Jan-17 18:30 47.396719 -121.513018 255 2596ft 136kts
12-Jan-17 18:31 47.402994 -121.555357 299 2177ft 84kts
12-Jan-17 18:32 47.396632 -121.546532 98 1693ft 64kts
12-Jan-17 18:33 47.394965 -121.533396 111 1637ft 14kts
12-Jan-17 18:34 47.394655 -121.532481 332 1636ft 0kts
12-Jan-17 18:35 47.394654 -121.532482 332 1636ft 0kts
12-Jan-17 18:36 47.394653 -121.532482 332 1636ft 0kts
12-Jan-17 18:37 47.394652 -121.532482 332 1636ft 0kts
12-Jan-17 18:38 47.394651 -121.532483 332 1636ft 0kts
12-Jan-17 18:39 47.394650 -121.532483 332 1636ft 0kts
12-Jan-17 18:40 47.394649 -121.532484 332 1636ft 0kts

Navigation Log

Ident Type
Flight plan parsing failed, navigation log unavailable